KAHN/AHN METAR and TAF weather

Enter ICAO airport designator
Station Type Date Time Source
KAHN METAR 2018/04/27 00:51 UTC NOAA

KAHN 270051Z AUTO 00000KT 10SM CLR 13/13 A2983 RMK AO2 SLP100 T01330133


Station Type Date Time Source
KAHN Decoded METAR 2018/04/27 00:51 UTC NOAA

ATHENS BEN EPPS AIRPORT, GA, United States (KAHN) 33-57N 083-20W 244M
Apr 26, 2018 - 08:51 PM EDT / 2018.04.27 0051 UTC
Wind: Calm:0
Visibility: 10 mile(s):0
Sky conditions: clear
Temperature: 55.9 F (13.3 C)
Dew Point: 55.9 F (13.3 C)
Relative Humidity: 100%
Pressure (altimeter): 29.83 in. Hg (1010 hPa)
ob: KAHN 270051Z AUTO 00000KT 10SM CLR 13/13 A2983 RMK AO2 SLP100 T01330133
cycle: 1

Station Type Date Time Source
KAHN TAF 2018/04/26 18:30 UTC NOAA

TAF KAHN 261729Z 2618/2718 VRB03KT P6SM BKN040 OVC070
FM261900 08006KT 6SM -SHRA FEW015 SCT025 OVC040
TEMPO 2620/2624 4SM SHRA SCT015 BKN025 OVC040
FM270400 22004KT P6SM VCSH BKN025
FM270800 29003KT 4SM BR BKN012
FM271400 30007KT P6SM SCT015 SCT035


Example: see airport list